sensor_id;sensor_type;location;lat;lon;timestamp;pressure;altitude;pressure_sealevel;temperature;humidity
26839;BME280;40088;51.214;6.786;2023-03-18T00:06:56;100591.66;;;17.05;52.20
26839;BME280;40088;51.214;6.786;2023-03-18T00:16:57;100593.41;;;17.06;52.22
26839;BME280;40088;51.214;6.786;2023-03-18T00:26:58;100601.66;;;17.06;52.32
26839;BME280;40088;51.214;6.786;2023-03-18T00:36:58;100587.88;;;17.06;52.36
26839;BME280;40088;51.214;6.786;2023-03-18T00:46:59;100574.97;;;17.07;52.33
26839;BME280;40088;51.214;6.786;2023-03-18T00:56:59;100576.03;;;17.06;52.44
26839;BME280;40088;51.214;6.786;2023-03-18T01:06:59;100601.81;;;17.05;52.59
26839;BME280;40088;51.214;6.786;2023-03-18T01:17:00;100599.94;;;17.05;52.36
26839;BME280;40088;51.214;6.786;2023-03-18T01:27:01;100588.06;;;17.05;52.50
26839;BME280;40088;51.214;6.786;2023-03-18T01:37:01;100595.47;;;17.04;52.46
26839;BME280;40088;51.214;6.786;2023-03-18T01:47:02;100585.31;;;17.05;52.37
26839;BME280;40088;51.214;6.786;2023-03-18T01:57:03;100584.47;;;17.04;52.37
26839;BME280;40088;51.214;6.786;2023-03-18T02:07:04;100577.25;;;17.03;52.57
26839;BME280;40088;51.214;6.786;2023-03-18T02:17:13;100555.25;;;17.03;52.68
26839;BME280;40088;51.214;6.786;2023-03-18T02:27:24;100581.72;;;17.04;52.52
26839;BME280;40088;51.214;6.786;2023-03-18T02:37:24;100571.75;;;17.03;52.61
26839;BME280;40088;51.214;6.786;2023-03-18T02:47:25;100572.81;;;17.02;52.45
26839;BME280;40088;51.214;6.786;2023-03-18T02:57:27;100600.97;;;17.04;52.54
26839;BME280;40088;51.214;6.786;2023-03-18T03:07:27;100589.13;;;17.04;52.69
26839;BME280;40088;51.214;6.786;2023-03-18T03:17:28;100595.69;;;17.03;52.62
26839;BME280;40088;51.214;6.786;2023-03-18T03:27:28;100602.88;;;17.04;52.55
26839;BME280;40088;51.214;6.786;2023-03-18T03:37:28;100602.03;;;17.03;52.67
26839;BME280;40088;51.214;6.786;2023-03-18T03:47:29;100611.16;;;17.04;52.55
26839;BME280;40088;51.214;6.786;2023-03-18T03:57:29;100624.06;;;17.03;52.78
26839;BME280;40088;51.214;6.786;2023-03-18T04:07:29;100642.28;;;17.04;52.83
26839;BME280;40088;51.214;6.786;2023-03-18T04:17:30;100638.69;;;17.04;52.63
26839;BME280;40088;51.214;6.786;2023-03-18T04:27:30;100646.94;;;17.04;52.88
26839;BME280;40088;51.214;6.786;2023-03-18T04:37:31;100651.59;;;17.03;52.72
26839;BME280;40088;51.214;6.786;2023-03-18T04:47:33;100659.84;;;17.03;52.73
26839;BME280;40088;51.214;6.786;2023-03-18T04:57:35;100665.34;;;17.03;52.75
26839;BME280;40088;51.214;6.786;2023-03-18T05:07:36;100683.56;;;17.04;52.79
26839;BME280;40088;51.214;6.786;2023-03-18T05:17:37;100679.97;;;17.04;52.78
26839;BME280;40088;51.214;6.786;2023-03-18T05:27:39;100689.06;;;17.04;52.93
26839;BME280;40088;51.214;6.786;2023-03-18T05:37:39;100683.41;;;17.06;52.91
26839;BME280;40088;51.214;6.786;2023-03-18T05:47:39;100702.00;;;17.04;52.96
26839;BME280;40088;51.214;6.786;2023-03-18T05:57:40;100710.03;;;17.05;52.94
26839;BME280;40088;51.214;6.786;2023-03-18T06:07:40;100724.00;;;17.04;53.10
26839;BME280;40088;51.214;6.786;2023-03-18T06:17:40;100723.81;;;17.05;52.84
26839;BME280;40088;51.214;6.786;2023-03-18T06:27:41;100732.94;;;17.06;52.97
26839;BME280;40088;51.214;6.786;2023-03-18T06:37:41;100735.69;;;17.06;52.98
26839;BME280;40088;51.214;6.786;2023-03-18T06:47:43;100737.56;;;17.05;52.83
26839;BME280;40088;51.214;6.786;2023-03-18T06:57:43;100740.31;;;17.05;52.90
26839;BME280;40088;51.214;6.786;2023-03-18T07:07:44;100742.22;;;17.05;53.05
26839;BME280;40088;51.214;6.786;2023-03-18T07:17:46;100754.97;;;17.06;52.96
26839;BME280;40088;51.214;6.786;2023-03-18T07:27:46;100756.66;;;17.07;52.90
26839;BME280;40088;51.214;6.786;2023-03-18T07:37:47;100755.81;;;17.06;53.00
26839;BME280;40088;51.214;6.786;2023-03-18T07:47:47;100777.84;;;17.06;52.94
26839;BME280;40088;51.214;6.786;2023-03-18T07:57:47;100782.50;;;17.06;53.13
26839;BME280;40088;51.214;6.786;2023-03-18T08:07:48;100788.84;;;17.06;53.07
26839;BME280;40088;51.214;6.786;2023-03-18T08:17:49;100801.78;;;17.06;52.96
26839;BME280;40088;51.214;6.786;2023-03-18T08:27:50;100813.63;;;17.06;53.14
26839;BME280;40088;51.214;6.786;2023-03-18T08:37:52;100814.66;;;17.05;53.33
26839;BME280;40088;51.214;6.786;2023-03-18T08:47:52;100811.91;;;17.05;53.33
26839;BME280;40088;51.214;6.786;2023-03-18T08:57:54;100822.06;;;17.05;53.34
26839;BME280;40088;51.214;6.786;2023-03-18T09:07:54;100809.16;;;17.05;53.22
26839;BME280;40088;51.214;6.786;2023-03-18T09:17:55;100831.84;;;17.07;53.37
26839;BME280;40088;51.214;6.786;2023-03-18T09:27:55;100833.75;;;17.07;53.31
26839;BME280;40088;51.214;6.786;2023-03-18T09:37:55;100825.66;;;17.05;53.42
26839;BME280;40088;51.214;6.786;2023-03-18T09:58:13;100825.50;;;17.07;53.55
26839;BME280;40088;51.214;6.786;2023-03-18T10:08:23;100810.88;;;17.06;53.52
26839;BME280;40088;51.214;6.786;2023-03-18T10:18:33;100813.44;;;17.08;53.35
26839;BME280;40088;51.214;6.786;2023-03-18T10:39:13;100803.28;;;17.08;53.45
26839;BME280;40088;51.214;6.786;2023-03-18T10:49:24;100797.75;;;17.08;53.55
26839;BME280;40088;51.214;6.786;2023-03-18T10:59:27;100809.63;;;17.09;53.49
26839;BME280;40088;51.214;6.786;2023-03-18T11:09:37;100807.06;;;17.07;53.69
26839;BME280;40088;51.214;6.786;2023-03-18T11:19:46;100804.31;;;17.07;53.58
26839;BME280;40088;51.214;6.786;2023-03-18T11:50:21;100806.66;;;17.10;53.74
26839;BME280;40088;51.214;6.786;2023-03-18T12:10:33;100801.56;;;17.07;53.78
26839;BME280;40088;51.214;6.786;2023-03-18T12:41:17;100770.88;;;17.10;53.69
26839;BME280;40088;51.214;6.786;2023-03-18T12:51:24;100771.75;;;17.11;53.70
26839;BME280;40088;51.214;6.786;2023-03-18T13:01:56;100762.63;;;17.10;53.74
26839;BME280;40088;51.214;6.786;2023-03-18T13:12:08;100768.13;;;17.10;53.90
26839;BME280;40088;51.214;6.786;2023-03-18T13:22:44;100754.19;;;17.12;53.87
26839;BME280;40088;51.214;6.786;2023-03-18T13:33:12;100739.75;;;17.10;53.85
26839;BME280;40088;51.214;6.786;2023-03-18T13:43:21;100730.63;;;17.09;53.83
26839;BME280;40088;51.214;6.786;2023-03-18T13:53:27;100724.94;;;17.11;53.88
26839;BME280;40088;51.214;6.786;2023-03-18T14:13:42;100761.75;;;17.10;53.99
26839;BME280;40088;51.214;6.786;2023-03-18T14:23:43;100760.75;;;17.11;53.99
26839;BME280;40088;51.214;6.786;2023-03-18T14:34:36;100744.41;;;17.09;54.16
26839;BME280;40088;51.214;6.786;2023-03-18T14:44:26;100750.56;;;17.11;54.15
26839;BME280;40088;51.214;6.786;2023-03-18T14:54:37;100742.50;;;17.10;54.50
26839;BME280;40088;51.214;6.786;2023-03-18T15:04:49;100731.31;;;17.11;54.24
26839;BME280;40088;51.214;6.786;2023-03-18T15:14:51;100736.81;;;17.11;54.25
26839;BME280;40088;51.214;6.786;2023-03-18T15:24:58;100733.84;;;17.13;54.60
26839;BME280;40088;51.214;6.786;2023-03-18T15:35:19;100726.66;;;17.12;54.40
26839;BME280;40088;51.214;6.786;2023-03-18T15:45:24;100722.00;;;17.12;54.37
26839;BME280;40088;51.214;6.786;2023-03-18T15:55:29;100726.44;;;17.13;54.53
26839;BME280;40088;51.214;6.786;2023-03-18T16:05:29;100722.63;;;17.14;54.42
26839;BME280;40088;51.214;6.786;2023-03-18T16:15:29;100724.75;;;17.12;54.72
26839;BME280;40088;51.214;6.786;2023-03-18T16:25:30;100720.94;;;17.13;54.73
26839;BME280;40088;51.214;6.786;2023-03-18T16:35:32;100721.78;;;17.14;54.79
26839;BME280;40088;51.214;6.786;2023-03-18T16:45:33;100722.00;;;17.12;54.70
26839;BME280;40088;51.214;6.786;2023-03-18T16:55:33;100730.03;;;17.14;54.80
26839;BME280;40088;51.214;6.786;2023-03-18T17:05:33;100740.00;;;17.15;54.76
26839;BME280;40088;51.214;6.786;2023-03-18T17:15:36;100754.81;;;17.14;54.97
26839;BME280;40088;51.214;6.786;2023-03-18T17:25:37;100751.22;;;17.13;54.81
26839;BME280;40088;51.214;6.786;2023-03-18T17:35:37;100753.59;;;17.16;54.77
26839;BME280;40088;51.214;6.786;2023-03-18T17:45:37;100755.66;;;17.14;55.08
26839;BME280;40088;51.214;6.786;2023-03-18T17:55:38;100754.63;;;17.15;54.91
26839;BME280;40088;51.214;6.786;2023-03-18T18:05:38;100770.13;;;17.16;54.97
26839;BME280;40088;51.214;6.786;2023-03-18T18:15:38;100767.34;;;17.16;55.15
26839;BME280;40088;51.214;6.786;2023-03-18T18:25:39;100783.00;;;17.16;55.09
26839;BME280;40088;51.214;6.786;2023-03-18T18:35:40;100793.84;;;17.17;54.93
26839;BME280;40088;51.214;6.786;2023-03-18T18:45:41;100802.09;;;17.17;54.93
26839;BME280;40088;51.214;6.786;2023-03-18T18:55:42;100806.75;;;17.17;54.88
26839;BME280;40088;51.214;6.786;2023-03-18T19:05:44;100804.66;;;17.19;54.77
26839;BME280;40088;51.214;6.786;2023-03-18T19:15:45;100807.59;;;17.17;54.75
26839;BME280;40088;51.214;6.786;2023-03-18T19:25:47;100813.97;;;17.18;54.91
26839;BME280;40088;51.214;6.786;2023-03-18T19:35:48;100824.13;;;17.17;54.79
26839;BME280;40088;51.214;6.786;2023-03-18T19:45:48;100835.78;;;17.19;54.70
26839;BME280;40088;51.214;6.786;2023-03-18T19:55:48;100845.09;;;17.18;54.84
26839;BME280;40088;51.214;6.786;2023-03-18T20:05:49;100847.84;;;17.18;54.71
26839;BME280;40088;51.214;6.786;2023-03-18T20:15:49;100851.25;;;17.21;54.65
26839;BME280;40088;51.214;6.786;2023-03-18T20:25:50;100858.88;;;17.18;54.63
26839;BME280;40088;51.214;6.786;2023-03-18T20:35:53;100866.06;;;17.19;54.65
26839;BME280;40088;51.214;6.786;2023-03-18T20:45:55;100867.97;;;17.19;54.53
26839;BME280;40088;51.214;6.786;2023-03-18T20:55:56;100877.09;;;17.19;54.63
26839;BME280;40088;51.214;6.786;2023-03-18T21:05:58;100882.59;;;17.19;54.63
26839;BME280;40088;51.214;6.786;2023-03-18T21:16:00;100879.84;;;17.19;54.25
26839;BME280;40088;51.214;6.786;2023-03-18T21:26:01;100864.38;;;17.18;54.46
26839;BME280;40088;51.214;6.786;2023-03-18T21:36:02;100867.78;;;17.21;54.71
26839;BME280;40088;51.214;6.786;2023-03-18T21:46:05;100883.44;;;17.20;54.36
26839;BME280;40088;51.214;6.786;2023-03-18T21:56:09;100874.13;;;17.21;54.53
26839;BME280;40088;51.214;6.786;2023-03-18T22:06:13;100888.97;;;17.20;54.52
26839;BME280;40088;51.214;6.786;2023-03-18T22:16:16;100887.06;;;17.21;54.46
26839;BME280;40088;51.214;6.786;2023-03-18T22:26:18;100876.25;;;17.19;54.51
26839;BME280;40088;51.214;6.786;2023-03-18T22:36:19;100864.84;;;17.22;54.33
26839;BME280;40088;51.214;6.786;2023-03-18T22:46:24;100864.00;;;17.22;54.29
26839;BME280;40088;51.214;6.786;2023-03-18T22:56:27;100900.66;;;17.22;54.42
26839;BME280;40088;51.214;6.786;2023-03-18T23:06:28;100901.66;;;17.21;54.25
26839;BME280;40088;51.214;6.786;2023-03-18T23:16:28;100884.28;;;17.21;54.37
26839;BME280;40088;51.214;6.786;2023-03-18T23:26:29;100856.75;;;17.21;54.23
26839;BME280;40088;51.214;6.786;2023-03-18T23:36:29;100855.91;;;17.20;54.27
26839;BME280;40088;51.214;6.786;2023-03-18T23:46:30;100854.00;;;17.21;54.22
26839;BME280;40088;51.214;6.786;2023-03-18T23:56:30;100867.78;;;17.21;54.44
